Decoded Metar for UKLR (ROVNO in UKRAINE) (IATA:N/A) | Meteo·Mobile Aviation Weather
aviador You're here:

UKLR Decoded Metar

ROVNO in UKRAINE
Report Time2019-02-17 06:00:00
UTC Time2019-02-17 06:24:55
Flight Rules vfr VFR
Wind270° at 14 kt
W.Decomp.*RWY 30: 11.7 kt HW 7.6 kt LCW
W.Rank270° ranks 1
Current wind is above 270° avg. (10.2)
Visibility9999 m
Phenomena:N/A
Clouds:N/A
Expected CloudBase > 400 ft AGL from Temp-Dew spread
CeilingNone
Temp01°C (ISA -13)
Dew Point00°C (93% RH)
AAT-6.0°C
QNH1021 hPa
Density Alt-951 ft
Elevation755 ft
Report Wrong Elevation
Raw Report
UKLR 170600Z 27007MPS CAVOK 01/M00 Q1021 NOSIG=

Extra information for UKLR:More info

Metar Taf Metar & Taf Last 4 Metars F.Rules Stats Wind Profile Meteogram Temp Stats Airport Information Weather charts Add Link Nearby VenuesMetar ALERT Operation Metar Decoded Social comments